sensor_id;sensor_type;location;lat;lon;timestamp;P1;durP1;ratioP1;P2;durP2;ratioP2
55827;SDS011;41758;51.992;5.890;2023-04-25T00:02:17;9.07;;;4.43;;
55827;SDS011;41758;51.992;5.890;2023-04-25T00:04:44;11.68;;;4.20;;
55827;SDS011;41758;51.992;5.890;2023-04-25T00:07:11;10.23;;;4.38;;
55827;SDS011;41758;51.992;5.890;2023-04-25T00:09:37;12.02;;;4.70;;
55827;SDS011;41758;51.992;5.890;2023-04-25T00:12:03;10.25;;;4.53;;
55827;SDS011;41758;51.992;5.890;2023-04-25T00:14:29;9.77;;;4.97;;
55827;SDS011;41758;51.992;5.890;2023-04-25T00:16:55;13.68;;;5.47;;
55827;SDS011;41758;51.992;5.890;2023-04-25T00:19:21;12.63;;;4.82;;
55827;SDS011;41758;51.992;5.890;2023-04-25T00:21:46;9.00;;;4.80;;
55827;SDS011;41758;51.992;5.890;2023-04-25T00:24:12;7.32;;;3.83;;
55827;SDS011;41758;51.992;5.890;2023-04-25T00:26:38;9.75;;;4.25;;
55827;SDS011;41758;51.992;5.890;2023-04-25T00:29:04;12.70;;;4.57;;
55827;SDS011;41758;51.992;5.890;2023-04-25T00:31:30;8.80;;;4.25;;
55827;SDS011;41758;51.992;5.890;2023-04-25T00:33:56;12.57;;;4.70;;
55827;SDS011;41758;51.992;5.890;2023-04-25T00:36:21;13.40;;;4.88;;
55827;SDS011;41758;51.992;5.890;2023-04-25T00:38:47;9.00;;;4.40;;
55827;SDS011;41758;51.992;5.890;2023-04-25T00:41:13;7.97;;;4.40;;
55827;SDS011;41758;51.992;5.890;2023-04-25T00:43:39;8.23;;;4.03;;
55827;SDS011;41758;51.992;5.890;2023-04-25T00:46:05;8.85;;;4.70;;
55827;SDS011;41758;51.992;5.890;2023-04-25T00:48:31;9.85;;;4.40;;
55827;SDS011;41758;51.992;5.890;2023-04-25T00:50:57;13.30;;;5.50;;
55827;SDS011;41758;51.992;5.890;2023-04-25T00:53:25;11.02;;;4.47;;
55827;SDS011;41758;51.992;5.890;2023-04-25T00:55:52;12.82;;;4.40;;
55827;SDS011;41758;51.992;5.890;2023-04-25T00:58:18;7.93;;;4.40;;
55827;SDS011;41758;51.992;5.890;2023-04-25T01:00:45;12.38;;;5.00;;
55827;SDS011;41758;51.992;5.890;2023-04-25T01:03:12;8.30;;;4.25;;
55827;SDS011;41758;51.992;5.890;2023-04-25T01:05:41;7.75;;;4.20;;
55827;SDS011;41758;51.992;5.890;2023-04-25T01:08:07;10.60;;;4.82;;
55827;SDS011;41758;51.992;5.890;2023-04-25T01:10:33;9.27;;;4.60;;
55827;SDS011;41758;51.992;5.890;2023-04-25T01:12:58;12.98;;;4.93;;
55827;SDS011;41758;51.992;5.890;2023-04-25T01:15:24;9.65;;;4.82;;
55827;SDS011;41758;51.992;5.890;2023-04-25T01:17:51;10.82;;;5.10;;
55827;SDS011;41758;51.992;5.890;2023-04-25T01:20:18;13.38;;;5.30;;
55827;SDS011;41758;51.992;5.890;2023-04-25T01:22:48;11.52;;;5.80;;
55827;SDS011;41758;51.992;5.890;2023-04-25T01:25:15;10.15;;;5.70;;
55827;SDS011;41758;51.992;5.890;2023-04-25T01:27:42;8.40;;;4.85;;
55827;SDS011;41758;51.992;5.890;2023-04-25T01:30:08;13.57;;;5.32;;
55827;SDS011;41758;51.992;5.890;2023-04-25T01:32:35;11.50;;;6.32;;
55827;SDS011;41758;51.992;5.890;2023-04-25T01:35:07;13.65;;;6.30;;
55827;SDS011;41758;51.992;5.890;2023-04-25T01:37:38;13.93;;;6.13;;
55827;SDS011;41758;51.992;5.890;2023-04-25T01:40:06;13.43;;;6.35;;
55827;SDS011;41758;51.992;5.890;2023-04-25T01:42:34;20.40;;;7.30;;
55827;SDS011;41758;51.992;5.890;2023-04-25T01:45:01;15.60;;;6.55;;
55827;SDS011;41758;51.992;5.890;2023-04-25T01:47:27;12.00;;;5.57;;
55827;SDS011;41758;51.992;5.890;2023-04-25T01:49:53;11.40;;;5.68;;
55827;SDS011;41758;51.992;5.890;2023-04-25T01:52:19;11.88;;;5.22;;
55827;SDS011;41758;51.992;5.890;2023-04-25T01:54:45;10.18;;;4.78;;
55827;SDS011;41758;51.992;5.890;2023-04-25T01:57:13;10.85;;;5.50;;
55827;SDS011;41758;51.992;5.890;2023-04-25T01:59:41;12.90;;;6.30;;
55827;SDS011;41758;51.992;5.890;2023-04-25T02:02:16;12.68;;;5.53;;
55827;SDS011;41758;51.992;5.890;2023-04-25T02:04:42;11.27;;;5.40;;
55827;SDS011;41758;51.992;5.890;2023-04-25T02:07:08;12.20;;;5.30;;
55827;SDS011;41758;51.992;5.890;2023-04-25T02:09:45;10.45;;;4.90;;
55827;SDS011;41758;51.992;5.890;2023-04-25T02:12:11;9.88;;;5.10;;
55827;SDS011;41758;51.992;5.890;2023-04-25T02:14:54;12.43;;;5.40;;
55827;SDS011;41758;51.992;5.890;2023-04-25T02:17:35;15.05;;;5.85;;
55827;SDS011;41758;51.992;5.890;2023-04-25T02:20:00;12.32;;;6.00;;
55827;SDS011;41758;51.992;5.890;2023-04-25T02:22:26;9.77;;;5.35;;
55827;SDS011;41758;51.992;5.890;2023-04-25T02:24:55;11.02;;;5.35;;
55827;SDS011;41758;51.992;5.890;2023-04-25T02:27:21;11.65;;;5.40;;
55827;SDS011;41758;51.992;5.890;2023-04-25T02:29:46;11.45;;;5.03;;
55827;SDS011;41758;51.992;5.890;2023-04-25T02:32:12;12.60;;;5.43;;
55827;SDS011;41758;51.992;5.890;2023-04-25T02:34:38;11.70;;;5.07;;
55827;SDS011;41758;51.992;5.890;2023-04-25T02:37:03;8.27;;;4.57;;
55827;SDS011;41758;51.992;5.890;2023-04-25T02:39:29;15.57;;;5.30;;
55827;SDS011;41758;51.992;5.890;2023-04-25T02:41:54;10.35;;;5.45;;
55827;SDS011;41758;51.992;5.890;2023-04-25T02:44:20;10.05;;;5.82;;
55827;SDS011;41758;51.992;5.890;2023-04-25T02:46:46;11.27;;;5.47;;
55827;SDS011;41758;51.992;5.890;2023-04-25T02:49:12;11.82;;;5.57;;
55827;SDS011;41758;51.992;5.890;2023-04-25T02:51:37;11.48;;;5.90;;
55827;SDS011;41758;51.992;5.890;2023-04-25T02:54:04;10.13;;;5.03;;
55827;SDS011;41758;51.992;5.890;2023-04-25T02:56:35;13.00;;;5.35;;
55827;SDS011;41758;51.992;5.890;2023-04-25T02:59:01;10.15;;;5.03;;
55827;SDS011;41758;51.992;5.890;2023-04-25T03:01:28;8.30;;;4.60;;
55827;SDS011;41758;51.992;5.890;2023-04-25T03:03:54;10.52;;;4.78;;
55827;SDS011;41758;51.992;5.890;2023-04-25T03:06:19;7.35;;;4.43;;
55827;SDS011;41758;51.992;5.890;2023-04-25T03:08:45;8.95;;;4.10;;
55827;SDS011;41758;51.992;5.890;2023-04-25T03:11:11;7.68;;;4.60;;
55827;SDS011;41758;51.992;5.890;2023-04-25T03:13:37;6.32;;;3.92;;
55827;SDS011;41758;51.992;5.890;2023-04-25T03:16:03;9.75;;;3.97;;
55827;SDS011;41758;51.992;5.890;2023-04-25T03:18:29;7.65;;;3.80;;
55827;SDS011;41758;51.992;5.890;2023-04-25T03:20:54;7.68;;;4.78;;
55827;SDS011;41758;51.992;5.890;2023-04-25T03:23:20;7.22;;;4.10;;
55827;SDS011;41758;51.992;5.890;2023-04-25T03:25:46;9.73;;;4.97;;
55827;SDS011;41758;51.992;5.890;2023-04-25T03:28:12;9.90;;;4.57;;
55827;SDS011;41758;51.992;5.890;2023-04-25T03:30:37;12.98;;;4.68;;
55827;SDS011;41758;51.992;5.890;2023-04-25T03:33:03;12.60;;;5.30;;
55827;SDS011;41758;51.992;5.890;2023-04-25T03:35:29;13.85;;;5.45;;
55827;SDS011;41758;51.992;5.890;2023-04-25T03:37:55;10.32;;;5.40;;
55827;SDS011;41758;51.992;5.890;2023-04-25T03:40:26;9.70;;;5.00;;
55827;SDS011;41758;51.992;5.890;2023-04-25T03:43:24;12.55;;;5.60;;
55827;SDS011;41758;51.992;5.890;2023-04-25T03:46:01;11.43;;;5.50;;
55827;SDS011;41758;51.992;5.890;2023-04-25T03:48:27;10.02;;;4.90;;
55827;SDS011;41758;51.992;5.890;2023-04-25T03:50:53;14.82;;;6.25;;
55827;SDS011;41758;51.992;5.890;2023-04-25T03:53:20;10.30;;;5.35;;
55827;SDS011;41758;51.992;5.890;2023-04-25T03:56:04;9.68;;;5.40;;
55827;SDS011;41758;51.992;5.890;2023-04-25T03:58:34;9.40;;;4.97;;
55827;SDS011;41758;51.992;5.890;2023-04-25T04:00:59;11.43;;;5.72;;
55827;SDS011;41758;51.992;5.890;2023-04-25T04:03:27;11.40;;;5.28;;
55827;SDS011;41758;51.992;5.890;2023-04-25T04:05:53;11.07;;;5.15;;
55827;SDS011;41758;51.992;5.890;2023-04-25T04:08:20;11.77;;;4.70;;
55827;SDS011;41758;51.992;5.890;2023-04-25T04:10:46;11.27;;;4.30;;
55827;SDS011;41758;51.992;5.890;2023-04-25T04:13:12;7.13;;;4.25;;
55827;SDS011;41758;51.992;5.890;2023-04-25T04:15:37;11.30;;;5.13;;
55827;SDS011;41758;51.992;5.890;2023-04-25T04:18:03;6.88;;;4.13;;
55827;SDS011;41758;51.992;5.890;2023-04-25T04:20:30;6.65;;;4.70;;
55827;SDS011;41758;51.992;5.890;2023-04-25T04:22:56;14.02;;;6.40;;
55827;SDS011;41758;51.992;5.890;2023-04-25T04:25:22;13.32;;;6.90;;
55827;SDS011;41758;51.992;5.890;2023-04-25T04:28:03;16.38;;;7.03;;
55827;SDS011;41758;51.992;5.890;2023-04-25T04:31:05;11.30;;;6.00;;
55827;SDS011;41758;51.992;5.890;2023-04-25T04:33:30;10.35;;;5.10;;
55827;SDS011;41758;51.992;5.890;2023-04-25T04:36:00;12.68;;;5.97;;
55827;SDS011;41758;51.992;5.890;2023-04-25T04:38:27;12.85;;;5.88;;
55827;SDS011;41758;51.992;5.890;2023-04-25T04:40:55;13.75;;;6.28;;
55827;SDS011;41758;51.992;5.890;2023-04-25T04:43:28;12.40;;;5.80;;
55827;SDS011;41758;51.992;5.890;2023-04-25T04:46:20;10.82;;;5.35;;
55827;SDS011;41758;51.992;5.890;2023-04-25T04:48:56;11.88;;;6.20;;
55827;SDS011;41758;51.992;5.890;2023-04-25T04:51:52;11.55;;;5.57;;
55827;SDS011;41758;51.992;5.890;2023-04-25T04:54:38;11.73;;;5.85;;
55827;SDS011;41758;51.992;5.890;2023-04-25T04:57:16;13.68;;;6.75;;
55827;SDS011;41758;51.992;5.890;2023-04-25T04:59:57;13.55;;;6.85;;
55827;SDS011;41758;51.992;5.890;2023-04-25T05:02:48;14.25;;;6.53;;
55827;SDS011;41758;51.992;5.890;2023-04-25T05:05:32;9.68;;;6.50;;
55827;SDS011;41758;51.992;5.890;2023-04-25T05:08:29;10.32;;;5.38;;
55827;SDS011;41758;51.992;5.890;2023-04-25T05:11:13;9.43;;;5.22;;
55827;SDS011;41758;51.992;5.890;2023-04-25T05:13:52;8.20;;;5.25;;
55827;SDS011;41758;51.992;5.890;2023-04-25T05:16:36;10.25;;;5.40;;
55827;SDS011;41758;51.992;5.890;2023-04-25T05:19:19;11.65;;;5.72;;
55827;SDS011;41758;51.992;5.890;2023-04-25T05:21:54;9.88;;;5.53;;
55827;SDS011;41758;51.992;5.890;2023-04-25T05:24:36;9.63;;;5.57;;
55827;SDS011;41758;51.992;5.890;2023-04-25T05:27:20;11.13;;;5.45;;
55827;SDS011;41758;51.992;5.890;2023-04-25T05:30:05;9.48;;;5.38;;
55827;SDS011;41758;51.992;5.890;2023-04-25T05:32:35;8.75;;;5.30;;
55827;SDS011;41758;51.992;5.890;2023-04-25T05:35:02;11.55;;;6.95;;
55827;SDS011;41758;51.992;5.890;2023-04-25T05:37:34;13.63;;;7.63;;
55827;SDS011;41758;51.992;5.890;2023-04-25T05:40:22;13.50;;;7.15;;
55827;SDS011;41758;51.992;5.890;2023-04-25T05:43:06;12.27;;;7.90;;
55827;SDS011;41758;51.992;5.890;2023-04-25T05:45:58;11.15;;;7.50;;
55827;SDS011;41758;51.992;5.890;2023-04-25T05:48:26;12.18;;;7.25;;
55827;SDS011;41758;51.992;5.890;2023-04-25T05:50:59;9.85;;;6.72;;
55827;SDS011;41758;51.992;5.890;2023-04-25T05:53:46;10.70;;;5.65;;
55827;SDS011;41758;51.992;5.890;2023-04-25T05:56:13;7.53;;;5.40;;
55827;SDS011;41758;51.992;5.890;2023-04-25T05:58:39;9.02;;;5.65;;
55827;SDS011;41758;51.992;5.890;2023-04-25T06:01:06;8.27;;;5.00;;
55827;SDS011;41758;51.992;5.890;2023-04-25T06:03:32;8.85;;;4.68;;
55827;SDS011;41758;51.992;5.890;2023-04-25T06:05:58;6.88;;;4.80;;
55827;SDS011;41758;51.992;5.890;2023-04-25T06:08:24;8.07;;;4.40;;
55827;SDS011;41758;51.992;5.890;2023-04-25T06:10:50;8.63;;;4.75;;
55827;SDS011;41758;51.992;5.890;2023-04-25T06:13:16;10.70;;;5.40;;
55827;SDS011;41758;51.992;5.890;2023-04-25T06:15:41;8.48;;;5.22;;
55827;SDS011;41758;51.992;5.890;2023-04-25T06:18:08;10.02;;;5.18;;
55827;SDS011;41758;51.992;5.890;2023-04-25T06:20:33;9.10;;;5.43;;
55827;SDS011;41758;51.992;5.890;2023-04-25T06:23:00;8.98;;;5.90;;
55827;SDS011;41758;51.992;5.890;2023-04-25T06:25:46;10.50;;;5.72;;
55827;SDS011;41758;51.992;5.890;2023-04-25T06:28:12;11.52;;;5.95;;
55827;SDS011;41758;51.992;5.890;2023-04-25T06:30:38;11.48;;;5.30;;
55827;SDS011;41758;51.992;5.890;2023-04-25T06:33:11;9.30;;;5.20;;
55827;SDS011;41758;51.992;5.890;2023-04-25T06:35:38;12.32;;;5.45;;
55827;SDS011;41758;51.992;5.890;2023-04-25T06:38:06;8.57;;;5.32;;
55827;SDS011;41758;51.992;5.890;2023-04-25T06:40:32;9.25;;;4.93;;
55827;SDS011;41758;51.992;5.890;2023-04-25T06:42:58;9.07;;;4.90;;
55827;SDS011;41758;51.992;5.890;2023-04-25T06:45:48;10.13;;;5.25;;
55827;SDS011;41758;51.992;5.890;2023-04-25T06:48:15;10.77;;;5.10;;
55827;SDS011;41758;51.992;5.890;2023-04-25T06:50:41;8.00;;;5.00;;
55827;SDS011;41758;51.992;5.890;2023-04-25T06:53:07;10.13;;;6.10;;
55827;SDS011;41758;51.992;5.890;2023-04-25T06:55:35;11.73;;;6.45;;
55827;SDS011;41758;51.992;5.890;2023-04-25T06:58:12;15.52;;;8.00;;
55827;SDS011;41758;51.992;5.890;2023-04-25T07:01:03;13.88;;;8.05;;
55827;SDS011;41758;51.992;5.890;2023-04-25T07:03:29;14.80;;;7.70;;
55827;SDS011;41758;51.992;5.890;2023-04-25T07:05:59;10.40;;;6.63;;
55827;SDS011;41758;51.992;5.890;2023-04-25T07:08:25;13.10;;;6.63;;
55827;SDS011;41758;51.992;5.890;2023-04-25T07:10:50;14.40;;;7.25;;
55827;SDS011;41758;51.992;5.890;2023-04-25T07:13:16;8.57;;;5.70;;
55827;SDS011;41758;51.992;5.890;2023-04-25T07:15:43;12.50;;;6.47;;
55827;SDS011;41758;51.992;5.890;2023-04-25T07:18:10;11.43;;;6.65;;
55827;SDS011;41758;51.992;5.890;2023-04-25T07:20:35;9.93;;;6.53;;
55827;SDS011;41758;51.992;5.890;2023-04-25T07:23:02;15.90;;;7.15;;
55827;SDS011;41758;51.992;5.890;2023-04-25T07:25:27;15.13;;;7.82;;
55827;SDS011;41758;51.992;5.890;2023-04-25T07:27:54;14.40;;;7.32;;
55827;SDS011;41758;51.992;5.890;2023-04-25T07:30:20;10.43;;;6.20;;
55827;SDS011;41758;51.992;5.890;2023-04-25T07:32:46;10.80;;;6.38;;
55827;SDS011;41758;51.992;5.890;2023-04-25T07:35:12;11.43;;;6.07;;
55827;SDS011;41758;51.992;5.890;2023-04-25T07:37:38;14.48;;;6.63;;
55827;SDS011;41758;51.992;5.890;2023-04-25T07:40:10;11.65;;;6.15;;
55827;SDS011;41758;51.992;5.890;2023-04-25T07:42:41;13.88;;;5.60;;
55827;SDS011;41758;51.992;5.890;2023-04-25T07:45:08;11.23;;;5.10;;
55827;SDS011;41758;51.992;5.890;2023-04-25T07:47:35;11.50;;;5.05;;
55827;SDS011;41758;51.992;5.890;2023-04-25T07:50:01;11.60;;;4.57;;
55827;SDS011;41758;51.992;5.890;2023-04-25T07:52:30;9.68;;;4.90;;
55827;SDS011;41758;51.992;5.890;2023-04-25T07:55:04;10.82;;;4.68;;
55827;SDS011;41758;51.992;5.890;2023-04-25T07:57:40;10.27;;;5.00;;
55827;SDS011;41758;51.992;5.890;2023-04-25T08:00:07;9.65;;;4.15;;
55827;SDS011;41758;51.992;5.890;2023-04-25T08:02:38;8.82;;;4.38;;
55827;SDS011;41758;51.992;5.890;2023-04-25T08:05:09;9.55;;;4.40;;
55827;SDS011;41758;51.992;5.890;2023-04-25T08:07:40;10.32;;;4.53;;
55827;SDS011;41758;51.992;5.890;2023-04-25T08:10:06;10.48;;;3.70;;
55827;SDS011;41758;51.992;5.890;2023-04-25T08:12:33;12.25;;;3.58;;
55827;SDS011;41758;51.992;5.890;2023-04-25T08:14:59;10.90;;;3.22;;
55827;SDS011;41758;51.992;5.890;2023-04-25T08:17:30;9.13;;;3.65;;
55827;SDS011;41758;51.992;5.890;2023-04-25T08:19:56;10.23;;;3.45;;
55827;SDS011;41758;51.992;5.890;2023-04-25T08:22:31;9.43;;;3.28;;
55827;SDS011;41758;51.992;5.890;2023-04-25T08:25:19;10.68;;;3.33;;
55827;SDS011;41758;51.992;5.890;2023-04-25T08:27:45;8.35;;;3.05;;
55827;SDS011;41758;51.992;5.890;2023-04-25T08:30:11;9.25;;;2.83;;
55827;SDS011;41758;51.992;5.890;2023-04-25T08:32:39;10.07;;;3.60;;
55827;SDS011;41758;51.992;5.890;2023-04-25T08:35:23;10.70;;;3.63;;
55827;SDS011;41758;51.992;5.890;2023-04-25T08:37:50;9.13;;;3.53;;
55827;SDS011;41758;51.992;5.890;2023-04-25T08:40:16;9.07;;;3.08;;
55827;SDS011;41758;51.992;5.890;2023-04-25T08:42:59;9.60;;;3.33;;
55827;SDS011;41758;51.992;5.890;2023-04-25T08:45:28;9.13;;;3.00;;
55827;SDS011;41758;51.992;5.890;2023-04-25T08:47:58;10.00;;;3.55;;
55827;SDS011;41758;51.992;5.890;2023-04-25T08:50:24;7.53;;;2.90;;
55827;SDS011;41758;51.992;5.890;2023-04-25T08:52:53;7.57;;;3.20;;
55827;SDS011;41758;51.992;5.890;2023-04-25T08:55:20;9.27;;;3.03;;
55827;SDS011;41758;51.992;5.890;2023-04-25T08:57:49;7.70;;;3.08;;
55827;SDS011;41758;51.992;5.890;2023-04-25T09:00:16;10.18;;;3.30;;
55827;SDS011;41758;51.992;5.890;2023-04-25T09:02:43;7.78;;;2.88;;
55827;SDS011;41758;51.992;5.890;2023-04-25T09:05:09;8.15;;;3.17;;
55827;SDS011;41758;51.992;5.890;2023-04-25T09:07:39;7.95;;;2.80;;
55827;SDS011;41758;51.992;5.890;2023-04-25T09:10:05;7.57;;;2.53;;
55827;SDS011;41758;51.992;5.890;2023-04-25T09:12:35;6.63;;;2.72;;
55827;SDS011;41758;51.992;5.890;2023-04-25T09:18:03;8.38;;;2.65;;
55827;SDS011;41758;51.992;5.890;2023-04-25T09:20:41;8.05;;;2.75;;
55827;SDS011;41758;51.992;5.890;2023-04-25T09:23:08;5.95;;;2.45;;
55827;SDS011;41758;51.992;5.890;2023-04-25T09:25:36;8.68;;;3.20;;
55827;SDS011;41758;51.992;5.890;2023-04-25T09:28:05;7.93;;;2.67;;
55827;SDS011;41758;51.992;5.890;2023-04-25T09:30:32;6.80;;;2.70;;
55827;SDS011;41758;51.992;5.890;2023-04-25T09:33:29;7.43;;;2.58;;
55827;SDS011;41758;51.992;5.890;2023-04-25T09:36:02;7.30;;;2.75;;
55827;SDS011;41758;51.992;5.890;2023-04-25T09:38:55;7.55;;;2.83;;
55827;SDS011;41758;51.992;5.890;2023-04-25T09:41:25;6.72;;;2.53;;
55827;SDS011;41758;51.992;5.890;2023-04-25T09:43:56;8.98;;;2.63;;
55827;SDS011;41758;51.992;5.890;2023-04-25T09:46:32;9.90;;;2.35;;
55827;SDS011;41758;51.992;5.890;2023-04-25T09:49:00;7.55;;;2.72;;
55827;SDS011;41758;51.992;5.890;2023-04-25T09:51:38;9.32;;;2.90;;
55827;SDS011;41758;51.992;5.890;2023-04-25T09:54:05;7.40;;;3.17;;
55827;SDS011;41758;51.992;5.890;2023-04-25T09:56:35;7.47;;;2.80;;
55827;SDS011;41758;51.992;5.890;2023-04-25T09:59:05;7.03;;;2.60;;
55827;SDS011;41758;51.992;5.890;2023-04-25T10:01:33;8.88;;;3.10;;
55827;SDS011;41758;51.992;5.890;2023-04-25T10:04:07;7.72;;;3.22;;
55827;SDS011;41758;51.992;5.890;2023-04-25T10:06:43;8.45;;;2.92;;
55827;SDS011;41758;51.992;5.890;2023-04-25T10:09:10;9.65;;;2.80;;
55827;SDS011;41758;51.992;5.890;2023-04-25T10:11:38;11.63;;;2.70;;
55827;SDS011;41758;51.992;5.890;2023-04-25T10:14:05;8.35;;;2.58;;
55827;SDS011;41758;51.992;5.890;2023-04-25T10:16:31;8.23;;;2.63;;
55827;SDS011;41758;51.992;5.890;2023-04-25T10:18:57;6.82;;;2.45;;
55827;SDS011;41758;51.992;5.890;2023-04-25T10:21:23;7.18;;;2.45;;
55827;SDS011;41758;51.992;5.890;2023-04-25T10:23:52;8.40;;;2.63;;
55827;SDS011;41758;51.992;5.890;2023-04-25T10:26:18;9.18;;;2.92;;
55827;SDS011;41758;51.992;5.890;2023-04-25T10:28:54;6.18;;;2.60;;
55827;SDS011;41758;51.992;5.890;2023-04-25T10:31:20;7.60;;;2.20;;
55827;SDS011;41758;51.992;5.890;2023-04-25T10:33:46;7.03;;;2.50;;
55827;SDS011;41758;51.992;5.890;2023-04-25T10:36:14;9.55;;;2.83;;
55827;SDS011;41758;51.992;5.890;2023-04-25T10:38:43;7.05;;;2.58;;
55827;SDS011;41758;51.992;5.890;2023-04-25T10:41:10;7.88;;;2.28;;
55827;SDS011;41758;51.992;5.890;2023-04-25T10:43:49;11.93;;;3.05;;
55827;SDS011;41758;51.992;5.890;2023-04-25T10:48:55;8.05;;;2.75;;
55827;SDS011;41758;51.992;5.890;2023-04-25T10:56:21;6.25;;;2.55;;
55827;SDS011;41758;51.992;5.890;2023-04-25T10:58:49;6.25;;;2.70;;
55827;SDS011;41758;51.992;5.890;2023-04-25T11:01:19;7.78;;;3.40;;
55827;SDS011;41758;51.992;5.890;2023-04-25T11:03:46;5.95;;;3.08;;
55827;SDS011;41758;51.992;5.890;2023-04-25T11:09:09;7.70;;;2.50;;
55827;SDS011;41758;51.992;5.890;2023-04-25T11:11:38;5.22;;;2.42;;
55827;SDS011;41758;51.992;5.890;2023-04-25T11:14:04;5.28;;;2.40;;
55827;SDS011;41758;51.992;5.890;2023-04-25T11:16:30;7.20;;;2.10;;
55827;SDS011;41758;51.992;5.890;2023-04-25T11:18:57;5.93;;;2.50;;
55827;SDS011;41758;51.992;5.890;2023-04-25T11:21:26;6.20;;;2.42;;
55827;SDS011;41758;51.992;5.890;2023-04-25T11:23:56;7.28;;;2.40;;
55827;SDS011;41758;51.992;5.890;2023-04-25T11:26:23;5.07;;;2.20;;
55827;SDS011;41758;51.992;5.890;2023-04-25T11:28:50;5.53;;;2.10;;
55827;SDS011;41758;51.992;5.890;2023-04-25T11:31:15;4.40;;;2.00;;
55827;SDS011;41758;51.992;5.890;2023-04-25T11:33:45;5.05;;;2.15;;
55827;SDS011;41758;51.992;5.890;2023-04-25T11:36:11;6.63;;;2.30;;
55827;SDS011;41758;51.992;5.890;2023-04-25T11:38:37;6.38;;;2.30;;
55827;SDS011;41758;51.992;5.890;2023-04-25T11:41:03;5.88;;;2.30;;
55827;SDS011;41758;51.992;5.890;2023-04-25T11:43:28;5.57;;;2.30;;
55827;SDS011;41758;51.992;5.890;2023-04-25T11:45:54;4.47;;;1.90;;
55827;SDS011;41758;51.992;5.890;2023-04-25T11:48:20;5.68;;;2.38;;
55827;SDS011;41758;51.992;5.890;2023-04-25T11:50:46;8.18;;;2.15;;
55827;SDS011;41758;51.992;5.890;2023-04-25T11:53:12;6.15;;;2.45;;
55827;SDS011;41758;51.992;5.890;2023-04-25T11:55:38;5.65;;;2.15;;
55827;SDS011;41758;51.992;5.890;2023-04-25T11:58:05;5.13;;;2.00;;
55827;SDS011;41758;51.992;5.890;2023-04-25T12:00:31;4.57;;;2.10;;
55827;SDS011;41758;51.992;5.890;2023-04-25T12:02:57;4.50;;;1.90;;
55827;SDS011;41758;51.992;5.890;2023-04-25T12:05:24;4.90;;;1.60;;
55827;SDS011;41758;51.992;5.890;2023-04-25T12:07:51;5.47;;;1.98;;
55827;SDS011;41758;51.992;5.890;2023-04-25T12:10:17;6.97;;;2.10;;
55827;SDS011;41758;51.992;5.890;2023-04-25T12:12:45;5.65;;;2.00;;
55827;SDS011;41758;51.992;5.890;2023-04-25T12:15:15;7.60;;;2.05;;
55827;SDS011;41758;51.992;5.890;2023-04-25T12:17:50;6.63;;;2.20;;
55827;SDS011;41758;51.992;5.890;2023-04-25T12:20:17;7.00;;;2.38;;
55827;SDS011;41758;51.992;5.890;2023-04-25T12:22:52;4.78;;;2.10;;
55827;SDS011;41758;51.992;5.890;2023-04-25T12:28:20;5.85;;;1.75;;
55827;SDS011;41758;51.992;5.890;2023-04-25T12:30:52;5.03;;;2.05;;
55827;SDS011;41758;51.992;5.890;2023-04-25T12:33:32;4.60;;;1.80;;
55827;SDS011;41758;51.992;5.890;2023-04-25T12:35:59;4.45;;;1.88;;
55827;SDS011;41758;51.992;5.890;2023-04-25T12:38:34;5.32;;;2.20;;
55827;SDS011;41758;51.992;5.890;2023-04-25T12:41:01;5.05;;;2.20;;
55827;SDS011;41758;51.992;5.890;2023-04-25T12:43:27;6.30;;;2.30;;
55827;SDS011;41758;51.992;5.890;2023-04-25T12:45:53;5.60;;;2.40;;
55827;SDS011;41758;51.992;5.890;2023-04-25T12:48:20;6.70;;;2.20;;
55827;SDS011;41758;51.992;5.890;2023-04-25T12:50:46;5.57;;;2.20;;
55827;SDS011;41758;51.992;5.890;2023-04-25T12:53:17;8.75;;;2.40;;
55827;SDS011;41758;51.992;5.890;2023-04-25T12:55:47;5.68;;;2.33;;
55827;SDS011;41758;51.992;5.890;2023-04-25T12:58:14;6.93;;;2.72;;
55827;SDS011;41758;51.992;5.890;2023-04-25T13:00:40;7.35;;;2.40;;
55827;SDS011;41758;51.992;5.890;2023-04-25T13:03:07;6.70;;;2.47;;
55827;SDS011;41758;51.992;5.890;2023-04-25T13:05:34;7.72;;;2.40;;
55827;SDS011;41758;51.992;5.890;2023-04-25T13:08:00;7.05;;;2.30;;
55827;SDS011;41758;51.992;5.890;2023-04-25T13:10:26;7.35;;;2.25;;
55827;SDS011;41758;51.992;5.890;2023-04-25T13:12:52;7.60;;;2.40;;
55827;SDS011;41758;51.992;5.890;2023-04-25T13:15:17;5.72;;;2.38;;
55827;SDS011;41758;51.992;5.890;2023-04-25T13:17:44;6.10;;;2.25;;
55827;SDS011;41758;51.992;5.890;2023-04-25T13:20:10;6.40;;;2.00;;
55827;SDS011;41758;51.992;5.890;2023-04-25T13:22:39;7.10;;;2.30;;
55827;SDS011;41758;51.992;5.890;2023-04-25T13:25:06;4.88;;;2.00;;
55827;SDS011;41758;51.992;5.890;2023-04-25T13:27:33;6.28;;;2.20;;
55827;SDS011;41758;51.992;5.890;2023-04-25T13:30:01;5.95;;;2.10;;
55827;SDS011;41758;51.992;5.890;2023-04-25T13:32:41;4.70;;;1.80;;
55827;SDS011;41758;51.992;5.890;2023-04-25T13:35:07;5.18;;;1.92;;
55827;SDS011;41758;51.992;5.890;2023-04-25T13:37:35;4.47;;;1.90;;
55827;SDS011;41758;51.992;5.890;2023-04-25T13:40:05;6.07;;;2.15;;
55827;SDS011;41758;51.992;5.890;2023-04-25T13:42:39;6.30;;;2.30;;
55827;SDS011;41758;51.992;5.890;2023-04-25T13:45:06;6.30;;;2.00;;
55827;SDS011;41758;51.992;5.890;2023-04-25T13:47:32;5.40;;;1.52;;
55827;SDS011;41758;51.992;5.890;2023-04-25T13:49:59;4.80;;;1.90;;
55827;SDS011;41758;51.992;5.890;2023-04-25T13:52:25;7.15;;;2.00;;
55827;SDS011;41758;51.992;5.890;2023-04-25T13:54:51;5.35;;;1.90;;
55827;SDS011;41758;51.992;5.890;2023-04-25T13:57:17;5.68;;;1.80;;
55827;SDS011;41758;51.992;5.890;2023-04-25T13:59:43;3.75;;;1.70;;
55827;SDS011;41758;51.992;5.890;2023-04-25T14:02:08;5.95;;;1.80;;
55827;SDS011;41758;51.992;5.890;2023-04-25T14:04:34;5.07;;;1.80;;
55827;SDS011;41758;51.992;5.890;2023-04-25T14:07:00;4.05;;;1.58;;
55827;SDS011;41758;51.992;5.890;2023-04-25T14:09:27;5.07;;;1.83;;
55827;SDS011;41758;51.992;5.890;2023-04-25T14:11:54;5.75;;;1.77;;
55827;SDS011;41758;51.992;5.890;2023-04-25T14:14:20;5.20;;;1.70;;
55827;SDS011;41758;51.992;5.890;2023-04-25T14:16:47;4.82;;;1.83;;
55827;SDS011;41758;51.992;5.890;2023-04-25T14:19:13;5.03;;;1.70;;
55827;SDS011;41758;51.992;5.890;2023-04-25T14:21:39;6.47;;;2.00;;
55827;SDS011;41758;51.992;5.890;2023-04-25T14:24:05;6.43;;;2.10;;
55827;SDS011;41758;51.992;5.890;2023-04-25T14:26:33;6.07;;;1.80;;
55827;SDS011;41758;51.992;5.890;2023-04-25T14:28:58;6.05;;;1.90;;
55827;SDS011;41758;51.992;5.890;2023-04-25T14:31:24;4.65;;;1.73;;
55827;SDS011;41758;51.992;5.890;2023-04-25T14:33:50;4.95;;;2.00;;
55827;SDS011;41758;51.992;5.890;2023-04-25T14:36:16;3.90;;;1.65;;
55827;SDS011;41758;51.992;5.890;2023-04-25T14:38:42;4.18;;;1.73;;
55827;SDS011;41758;51.992;5.890;2023-04-25T14:41:08;4.70;;;1.60;;
55827;SDS011;41758;51.992;5.890;2023-04-25T14:43:34;4.80;;;1.88;;
55827;SDS011;41758;51.992;5.890;2023-04-25T14:46:01;3.42;;;1.73;;
55827;SDS011;41758;51.992;5.890;2023-04-25T14:48:27;4.95;;;1.90;;
55827;SDS011;41758;51.992;5.890;2023-04-25T14:50:54;6.13;;;1.95;;
55827;SDS011;41758;51.992;5.890;2023-04-25T14:53:21;5.38;;;1.75;;
55827;SDS011;41758;51.992;5.890;2023-04-25T14:55:47;6.65;;;1.85;;
55827;SDS011;41758;51.992;5.890;2023-04-25T14:58:14;6.65;;;1.85;;
55827;SDS011;41758;51.992;5.890;2023-04-25T15:00:39;6.13;;;2.10;;
55827;SDS011;41758;51.992;5.890;2023-04-25T15:03:05;7.13;;;2.30;;
55827;SDS011;41758;51.992;5.890;2023-04-25T15:05:32;5.38;;;1.70;;
55827;SDS011;41758;51.992;5.890;2023-04-25T15:07:59;6.30;;;2.20;;
55827;SDS011;41758;51.992;5.890;2023-04-25T15:10:25;4.78;;;1.70;;
55827;SDS011;41758;51.992;5.890;2023-04-25T15:12:51;6.03;;;1.73;;